createdAt,value
2017-02-11T00:00:17.848Z,1006.9
2017-02-11T00:01:28.228Z,1006.87
2017-02-11T00:02:38.965Z,1006.85
2017-02-11T00:03:49.337Z,1006.88
2017-02-11T00:05:00.091Z,1006.84
2017-02-11T00:06:10.535Z,1006.86
2017-02-11T00:07:20.908Z,1006.85
2017-02-11T00:08:31.294Z,1006.8
2017-02-11T00:09:42.053Z,1006.86
2017-02-11T00:10:52.427Z,1006.92
2017-02-11T00:12:03.175Z,1006.87
2017-02-11T00:13:13.946Z,1006.83
2017-02-11T00:14:24.700Z,1006.91
2017-02-11T00:15:35.498Z,1006.89
2017-02-11T00:16:46.270Z,1006.8
2017-02-11T00:17:56.238Z,1006.84
2017-02-11T00:19:06.985Z,1006.88
2017-02-11T00:20:17.345Z,1006.84
2017-02-11T00:21:27.720Z,1006.79
2017-02-11T00:22:37.695Z,1006.77
2017-02-11T00:23:48.483Z,1006.83
2017-02-11T00:24:59.265Z,1006.77
2017-02-11T00:26:10.053Z,1006.8
2017-02-11T00:27:20.459Z,1006.79
2017-02-11T00:28:31.214Z,1006.85
2017-02-11T00:29:41.572Z,1006.76
2017-02-11T00:30:51.912Z,1006.84
2017-02-11T00:32:01.875Z,1006.81
2017-02-11T00:33:11.434Z,1006.81
2017-02-11T00:34:21.783Z,1006.82
2017-02-11T00:35:32.129Z,1006.82
2017-02-11T00:36:42.500Z,1006.78
2017-02-11T00:37:52.461Z,1006.78
2017-02-11T00:39:02.835Z,1006.79
2017-02-11T00:40:13.211Z,1006.81
2017-02-11T00:41:23.962Z,1006.78
2017-02-11T00:42:34.730Z,1006.74
2017-02-11T00:43:45.098Z,1006.79
2017-02-11T00:44:55.864Z,1006.62
2017-02-11T00:46:06.617Z,1006.76
2017-02-11T00:47:17.394Z,1006.76
2017-02-11T00:48:28.170Z,1006.72
2017-02-11T00:49:38.933Z,1006.7
2017-02-11T00:50:49.698Z,1006.72
2017-02-11T00:51:59.683Z,1006.74
2017-02-11T00:53:10.049Z,1006.74
2017-02-11T00:54:20.406Z,1006.71
2017-02-11T00:55:30.371Z,1006.72
2017-02-11T00:56:40.726Z,1006.71
2017-02-11T00:57:51.487Z,1006.69
2017-02-11T00:59:01.864Z,1006.72
2017-02-11T01:00:11.825Z,1006.77
2017-02-11T01:01:21.795Z,1006.72
2017-02-11T01:02:31.776Z,1006.72
2017-02-11T01:03:41.728Z,1006.78
2017-02-11T01:04:52.080Z,1006.72
2017-02-11T01:06:02.041Z,1006.68
2017-02-11T01:07:12.014Z,1006.67
2017-02-11T01:08:21.964Z,1006.73
2017-02-11T01:09:32.719Z,1006.67
2017-02-11T01:10:43.479Z,1006.76
2017-02-11T01:11:53.837Z,1006.73
2017-02-11T01:13:04.591Z,1006.67
2017-02-11T01:14:14.961Z,1006.71
2017-02-11T01:15:24.536Z,1006.76
2017-02-11T01:16:34.906Z,1006.75
2017-02-11T01:17:45.665Z,1006.76
2017-02-11T01:18:55.472Z,1006.73
2017-02-11T01:20:05.881Z,1006.74
2017-02-11T01:21:16.254Z,1006.73
2017-02-11T01:22:26.219Z,1006.72
2017-02-11T01:23:36.616Z,1006.76
2017-02-11T01:24:46.971Z,1006.74
2017-02-11T01:25:57.316Z,1006.67
2017-02-11T01:27:08.056Z,1006.71
2017-02-11T01:28:18.430Z,1006.7
2017-02-11T01:29:28.799Z,1006.69
2017-02-11T01:30:39.623Z,1006.68
2017-02-11T01:31:49.583Z,1006.64
2017-02-11T01:32:59.939Z,1006.69
2017-02-11T01:34:10.690Z,1006.64
2017-02-11T01:35:21.456Z,1006.63
2017-02-11T01:36:32.215Z,1006.61
2017-02-11T01:37:42.974Z,1006.59
2017-02-11T01:38:52.933Z,1006.52
2017-02-11T01:40:03.689Z,1006.49
2017-02-11T01:41:14.469Z,1006.51
2017-02-11T01:42:24.842Z,1006.47
2017-02-11T01:43:35.055Z,1006.48
2017-02-11T01:44:45.431Z,1006.45
2017-02-11T01:45:55.383Z,1006.47
2017-02-11T01:47:06.186Z,1006.4
2017-02-11T01:48:16.939Z,1006.45
2017-02-11T01:49:27.359Z,1006.41
2017-02-11T01:50:38.123Z,1006.42
2017-02-11T01:51:48.479Z,1006.42
2017-02-11T01:52:58.455Z,1006.35
2017-02-11T01:54:09.198Z,1006.48
2017-02-11T01:55:19.938Z,1006.46
2017-02-11T01:56:29.892Z,1006.38
2017-02-11T01:57:40.267Z,1006.4
2017-02-11T01:58:51.029Z,1006.38
2017-02-11T02:00:02.048Z,1006.37
2017-02-11T02:01:12.018Z,1006.41
2017-02-11T02:02:22.783Z,1006.37
2017-02-11T02:03:32.751Z,1006.41
2017-02-11T02:04:42.731Z,1006.4
2017-02-11T02:05:53.490Z,1006.4
2017-02-11T02:07:03.840Z,1006.38
2017-02-11T02:08:14.200Z,1006.33
2017-02-11T02:09:24.188Z,1006.35
2017-02-11T02:10:34.547Z,1006.32
2017-02-11T02:11:44.929Z,1006.32
2017-02-11T02:12:55.279Z,1006.34
2017-02-11T02:14:05.641Z,1006.34
2017-02-11T02:15:16.393Z,1006.42
2017-02-11T02:16:27.344Z,1006.44
2017-02-11T02:17:37.693Z,1006.47
2017-02-11T02:18:48.129Z,1006.41
2017-02-11T02:19:58.086Z,1006.47
2017-02-11T02:21:07.648Z,1006.5
2017-02-11T02:22:18.384Z,1006.45
2017-02-11T02:23:29.132Z,1006.42
2017-02-11T02:24:39.874Z,1006.48
2017-02-11T02:25:50.853Z,1006.43
2017-02-11T02:27:01.200Z,1006.46
2017-02-11T02:28:11.560Z,1006.44
2017-02-11T02:29:22.318Z,1006.47
2017-02-11T02:30:32.356Z,1006.41
2017-02-11T02:31:42.732Z,1006.38
2017-02-11T02:32:53.093Z,1006.42
2017-02-11T02:34:02.677Z,1006.41
2017-02-11T02:35:13.433Z,1006.33
2017-02-11T02:36:23.794Z,1006.25
2017-02-11T02:37:34.152Z,1006.27
2017-02-11T02:38:44.903Z,1006.32
2017-02-11T02:39:55.273Z,1006.29
2017-02-11T02:41:06.035Z,1006.27
2017-02-11T02:42:16.370Z,1006.21
2017-02-11T02:43:27.128Z,1006.19
2017-02-11T02:44:37.884Z,1006.21
2017-02-11T02:45:48.247Z,1006.2
2017-02-11T02:46:58.606Z,1006.16
2017-02-11T02:48:09.024Z,1006.18
2017-02-11T02:49:18.582Z,1006.17
2017-02-11T02:50:28.918Z,1006.21
2017-02-11T02:51:39.669Z,1006.15
2017-02-11T02:52:50.424Z,1006.14
2017-02-11T02:54:00.841Z,1006.21
2017-02-11T02:55:10.817Z,1006.2
2017-02-11T02:56:21.197Z,1006.2
2017-02-11T02:57:31.946Z,1006.14
2017-02-11T02:58:42.306Z,1006.21
2017-02-11T02:59:53.058Z,1006.12
2017-02-11T03:01:03.826Z,1006.18
2017-02-11T03:32:38.700Z,1006
2017-02-11T03:33:49.039Z,1006.04
2017-02-11T03:34:59.797Z,1006.05
2017-02-11T03:36:10.148Z,1006
2017-02-11T03:37:20.508Z,1006.02
2017-02-11T03:38:30.916Z,1006.06
2017-02-11T03:39:41.674Z,1006.03
2017-02-11T03:40:52.425Z,1006.06
2017-02-11T03:42:03.180Z,1006.08
2017-02-11T03:43:14.165Z,1006.08
2017-02-11T03:44:24.925Z,1006.03
2017-02-11T03:45:35.294Z,1006.07
2017-02-11T03:46:46.053Z,1006.04
2017-02-11T03:47:56.656Z,1006.07
2017-02-11T03:49:07.414Z,1006.01
2017-02-11T03:50:18.152Z,1005.98
2017-02-11T03:51:28.893Z,1005.99
2017-02-11T03:52:39.239Z,1006.01
2017-02-11T03:53:49.986Z,1005.96
2017-02-11T03:55:00.343Z,1005.89
2017-02-11T03:56:11.095Z,1005.89
2017-02-11T03:57:21.058Z,1005.87
2017-02-11T03:58:31.803Z,1005.87
2017-02-11T03:59:42.550Z,1005.84
2017-02-11T04:00:52.894Z,1005.91
2017-02-11T04:02:02.864Z,1005.91
2017-02-11T04:03:13.618Z,1005.92
2017-02-11T04:04:23.979Z,1006
2017-02-11T04:05:34.324Z,1005.98
2017-02-11T04:06:45.068Z,1006.02
2017-02-11T04:07:55.827Z,1005.91
2017-02-11T04:09:06.185Z,1005.96
2017-02-11T04:10:16.532Z,1005.97
2017-02-11T04:11:26.493Z,1005.91
2017-02-11T04:12:36.847Z,1005.98
2017-02-11T04:13:46.832Z,1005.95
2017-02-11T04:14:57.593Z,1005.97
2017-02-11T04:16:08.345Z,1006.08
2017-02-11T04:17:18.700Z,1006.06
2017-02-11T04:18:29.508Z,1005.96
2017-02-11T04:19:40.253Z,1005.99
2017-02-11T04:20:50.641Z,1005.95
2017-02-11T04:22:01.021Z,1005.94
2017-02-11T04:23:11.761Z,1005.98
2017-02-11T04:24:22.133Z,1005.92
2017-02-11T04:25:32.891Z,1005.93
2017-02-11T04:26:42.483Z,1005.95
2017-02-11T04:27:53.229Z,1005.89
2017-02-11T04:29:03.978Z,1005.95
2017-02-11T04:30:14.720Z,1005.98
2017-02-11T04:31:25.156Z,1006.03
2017-02-11T04:32:35.523Z,1006.02
2017-02-11T04:33:46.315Z,1006.04
2017-02-11T04:34:57.061Z,1006.03
2017-02-11T04:36:07.419Z,1006.05
2017-02-11T04:37:17.376Z,1006.05
2017-02-11T04:38:28.140Z,1006.05
2017-02-11T04:39:38.497Z,1006.07
2017-02-11T04:40:48.837Z,1006.06
2017-02-11T04:41:59.598Z,1006.09
2017-02-11T04:43:10.349Z,1006.11
2017-02-11T04:44:21.337Z,1006.06
2017-02-11T04:45:31.729Z,1006.14
2017-02-11T04:46:42.101Z,1006.16
2017-02-11T04:47:52.857Z,1006.2
2017-02-11T04:49:02.821Z,1006.24
2017-02-11T04:50:13.565Z,1006.18
2017-02-11T04:51:23.928Z,1006.16
2017-02-11T04:52:34.670Z,1006.18
2017-02-11T04:53:44.628Z,1006.25
2017-02-11T04:54:54.996Z,1006.24
2017-02-11T04:56:05.743Z,1006.23
2017-02-11T04:57:16.493Z,1006.17
2017-02-11T04:58:26.853Z,1006.21
2017-02-11T04:59:36.836Z,1006.24
2017-02-11T05:00:47.649Z,1006.18
2017-02-11T05:01:57.615Z,1006.15
2017-02-11T05:03:07.612Z,1006.16
2017-02-11T05:04:17.964Z,1006.19
2017-02-11T05:05:28.762Z,1006.17
2017-02-11T05:06:38.728Z,1006.19
2017-02-11T05:07:49.490Z,1006.18
2017-02-11T05:08:59.857Z,1006.24
2017-02-11T05:10:10.616Z,1006.22
2017-02-11T05:11:20.970Z,1006.35
2017-02-11T05:12:31.713Z,1006.32
2017-02-11T05:13:42.085Z,1006.33
2017-02-11T05:14:52.448Z,1006.3
2017-02-11T05:16:03.203Z,1006.32
2017-02-11T05:17:13.562Z,1006.3
2017-02-11T05:18:23.115Z,1006.31
2017-02-11T05:19:33.463Z,1006.36
2017-02-11T05:20:44.210Z,1006.36
2017-02-11T05:21:54.948Z,1006.28
2017-02-11T05:23:05.702Z,1006.26
2017-02-11T05:24:16.103Z,1006.31
2017-02-11T05:25:26.459Z,1006.29
2017-02-11T05:26:36.418Z,1006.27
2017-02-11T05:27:46.772Z,1006.27
2017-02-11T05:28:57.146Z,1006.35
2017-02-11T05:30:07.511Z,1006.31
2017-02-11T05:31:18.282Z,1006.3
2017-02-11T05:32:29.037Z,1006.36
2017-02-11T05:33:39.799Z,1006.32
2017-02-11T05:34:50.552Z,1006.36
2017-02-11T05:36:01.334Z,1006.37
2017-02-11T05:37:12.093Z,1006.39
2017-02-11T05:38:22.453Z,1006.41
2017-02-11T05:39:32.811Z,1006.42
2017-02-11T05:40:42.812Z,1006.48
2017-02-11T05:41:53.592Z,1006.42
2017-02-11T05:43:04.351Z,1006.41
2017-02-11T05:44:15.124Z,1006.44
2017-02-11T05:45:25.476Z,1006.46
2017-02-11T05:46:35.833Z,1006.51
2017-02-11T05:47:46.577Z,1006.41
2017-02-11T05:48:56.936Z,1006.5
2017-02-11T05:50:07.730Z,1006.39
2017-02-11T05:51:18.082Z,1006.39
2017-02-11T05:52:28.444Z,1006.42
2017-02-11T05:53:39.192Z,1006.39
2017-02-11T05:54:49.961Z,1006.4
2017-02-11T05:55:59.547Z,1006.44
2017-02-11T05:57:09.905Z,1006.44
2017-02-11T05:58:20.648Z,1006.43
2017-02-11T05:59:30.611Z,1006.44
2017-02-11T06:00:40.963Z,1006.45
2017-02-11T06:01:50.920Z,1006.45
2017-02-11T06:03:01.262Z,1006.42
2017-02-11T06:04:12.015Z,1006.39
2017-02-11T06:05:22.781Z,1006.42
2017-02-11T06:06:33.406Z,1006.42
2017-02-11T06:07:43.774Z,1006.45
2017-02-11T06:08:54.127Z,1006.41
2017-02-11T06:10:04.866Z,1006.43
2017-02-11T06:11:15.210Z,1006.44
2017-02-11T06:12:25.568Z,1006.42
2017-02-11T06:13:36.306Z,1006.42
2017-02-11T06:14:47.053Z,1006.44
2017-02-11T06:15:57.839Z,1006.43
2017-02-11T06:17:08.658Z,1006.46
2017-02-11T06:18:19.010Z,1006.47
2017-02-11T06:19:29.761Z,1006.5
2017-02-11T06:20:40.520Z,1006.48
2017-02-11T06:21:50.870Z,1006.53
2017-02-11T06:23:01.638Z,1006.5
2017-02-11T06:24:11.981Z,1006.49
2017-02-11T06:25:22.745Z,1006.51
2017-02-11T06:26:33.488Z,1006.52
2017-02-11T06:27:44.472Z,1006.53
2017-02-11T06:28:54.869Z,1006.47
2017-02-11T06:30:05.248Z,1006.49
2017-02-11T06:31:16.007Z,1006.55
2017-02-11T06:32:26.748Z,1006.52
2017-02-11T06:33:36.697Z,1006.65
2017-02-11T06:34:47.461Z,1006.55
2017-02-11T06:35:57.833Z,1006.56
2017-02-11T06:37:08.573Z,1006.59
2017-02-11T06:38:18.943Z,1006.58
2017-02-11T06:39:29.287Z,1006.56
2017-02-11T06:40:39.250Z,1006.55
2017-02-11T06:41:50.004Z,1006.57
2017-02-11T06:43:00.385Z,1006.57
2017-02-11T06:44:10.342Z,1006.56
2017-02-11T06:45:20.300Z,1006.58
2017-02-11T06:46:30.657Z,1006.58
2017-02-11T06:47:41.013Z,1006.61
2017-02-11T06:48:51.791Z,1006.61
2017-02-11T06:50:02.545Z,1006.59
2017-02-11T06:51:12.905Z,1006.56
2017-02-11T06:52:23.702Z,1006.53
2017-02-11T06:53:34.464Z,1006.55
2017-02-11T06:54:45.237Z,1006.58
2017-02-11T06:55:54.815Z,1006.57
2017-02-11T06:57:05.562Z,1006.56
2017-02-11T06:58:16.315Z,1006.57
2017-02-11T06:59:26.684Z,1006.55
2017-02-11T07:00:37.439Z,1006.54
2017-02-11T07:01:47.795Z,1006.6
2017-02-11T07:02:58.175Z,1006.63
2017-02-11T07:04:08.181Z,1006.61
2017-02-11T07:05:18.547Z,1006.6
2017-02-11T07:06:29.302Z,1006.59
2017-02-11T07:07:39.657Z,1006.6
2017-02-11T07:08:49.706Z,1006.51
2017-02-11T07:10:01.666Z,1006.56
2017-02-11T07:11:11.661Z,1006.58
2017-02-11T07:12:22.420Z,1006.62
2017-02-11T07:13:32.823Z,1006.67
2017-02-11T07:14:42.779Z,1006.68
2017-02-11T07:15:53.140Z,1006.66
2017-02-11T07:17:03.896Z,1006.65
2017-02-11T07:18:14.643Z,1006.67
2017-02-11T07:19:24.620Z,1006.72
2017-02-11T07:20:34.972Z,1006.65
2017-02-11T07:21:45.809Z,1006.72
2017-02-11T07:22:56.569Z,1006.73
2017-02-11T07:24:06.935Z,1006.76
2017-02-11T07:25:16.910Z,1006.81
2017-02-11T07:26:27.279Z,1006.79
2017-02-11T07:27:38.269Z,1006.76
2017-02-11T07:28:48.256Z,1006.73
2017-02-11T07:29:59.036Z,1006.79
2017-02-11T07:31:09.402Z,1006.74
2017-02-11T07:32:19.773Z,1006.84
2017-02-11T07:33:30.525Z,1006.82
2017-02-11T07:34:40.514Z,1006.83
2017-02-11T07:35:51.270Z,1006.81
2017-02-11T07:37:01.636Z,1006.86
2017-02-11T07:38:12.391Z,1006.84
2017-02-11T07:39:23.196Z,1006.81
2017-02-11T07:40:33.571Z,1006.85
2017-02-11T07:41:43.919Z,1006.79
2017-02-11T07:42:54.661Z,1006.75
2017-02-11T07:44:05.411Z,1006.79
2017-02-11T07:45:14.961Z,1006.77
2017-02-11T07:46:25.318Z,1006.82
2017-02-11T07:47:35.700Z,1006.82
2017-02-11T07:48:45.649Z,1006.89
2017-02-11T07:49:56.412Z,1006.83
2017-02-11T07:51:06.789Z,1006.82
2017-02-11T07:52:17.158Z,1006.88
2017-02-11T07:53:27.935Z,1006.86
2017-02-11T07:54:38.305Z,1006.83
2017-02-11T07:55:49.071Z,1006.85
2017-02-11T07:56:59.419Z,1006.88
2017-02-11T07:58:09.437Z,1006.91
2017-02-11T07:59:19.795Z,1006.97
2017-02-11T08:00:30.544Z,1006.85
2017-02-11T08:01:41.324Z,1006.94
2017-02-11T08:02:51.277Z,1006.98
2017-02-11T08:04:01.243Z,1006.96
2017-02-11T08:05:11.228Z,1006.96
2017-02-11T08:06:20.805Z,1006.91
2017-02-11T08:07:31.178Z,1006.93
2017-02-11T08:08:41.942Z,1006.95
2017-02-11T08:09:52.692Z,1006.98
2017-02-11T08:11:02.675Z,1007.01
2017-02-11T08:12:13.057Z,1007.03
2017-02-11T08:13:23.812Z,1007.04
2017-02-11T08:14:34.238Z,1007.01
2017-02-11T08:15:44.210Z,1007.03
2017-02-11T08:16:54.179Z,1006.98
2017-02-11T08:18:04.934Z,1007.02
2017-02-11T08:19:15.297Z,1006.97
2017-02-11T08:20:25.712Z,1007.05
2017-02-11T08:21:36.101Z,1006.96
2017-02-11T08:22:46.526Z,1007.02
2017-02-11T08:23:56.896Z,1006.99
2017-02-11T08:25:06.857Z,1006.98
2017-02-11T08:26:17.615Z,1006.97
2017-02-11T08:27:27.990Z,1007.06
2017-02-11T08:28:38.762Z,1007.06
2017-02-11T08:29:49.118Z,1007.05
2017-02-11T08:30:59.466Z,1007.04
2017-02-11T08:32:09.070Z,1007.1
2017-02-11T08:33:19.435Z,1007.13
2017-02-11T08:34:29.809Z,1007.04
2017-02-11T08:35:40.179Z,1007.06
2017-02-11T08:36:50.183Z,1007.06
2017-02-11T08:38:00.955Z,1007.02
2017-02-11T08:39:11.335Z,1007.06
2017-02-11T08:40:22.089Z,1007.03
2017-02-11T08:41:32.057Z,1007.13
2017-02-11T08:42:42.436Z,1007.18
2017-02-11T08:43:53.282Z,1007.09
2017-02-11T08:45:03.648Z,1007.18
2017-02-11T08:46:14.031Z,1007.2
2017-02-11T08:47:24.781Z,1007.24
2017-02-11T08:48:35.286Z,1007.25
2017-02-11T08:49:46.131Z,1007.25
2017-02-11T08:50:56.931Z,1007.24
2017-02-11T08:52:07.721Z,1007.27
2017-02-11T08:53:18.515Z,1007.26
2017-02-11T08:54:29.640Z,1007.27
2017-02-11T08:55:40.084Z,1007.29
2017-02-11T08:56:50.489Z,1007.25
2017-02-11T08:58:01.271Z,1007.27
2017-02-11T08:59:11.268Z,1007.24
2017-02-11T09:00:21.678Z,1007.27
2017-02-11T09:01:32.140Z,1007.27
2017-02-11T09:02:42.958Z,1007.31
2017-02-11T09:03:53.751Z,1007.27
2017-02-11T09:05:04.137Z,1007.28
2017-02-11T09:06:14.496Z,1007.26
2017-02-11T09:07:25.247Z,1007.26
2017-02-11T09:08:36.008Z,1007.18
2017-02-11T09:09:46.351Z,1007.25
2017-02-11T09:10:56.713Z,1007.27
2017-02-11T09:12:06.673Z,1007.24
2017-02-11T09:13:16.875Z,1007.31
2017-02-11T09:14:26.838Z,1007.32
2017-02-11T09:15:37.578Z,1007.3
2017-02-11T09:16:47.563Z,1007.32
2017-02-11T09:17:57.953Z,1007.3
2017-02-11T09:19:08.710Z,1007.36
2017-02-11T09:20:19.486Z,1007.36
2017-02-11T09:21:29.460Z,1007.34
2017-02-11T09:22:40.015Z,1007.38
2017-02-11T09:23:50.795Z,1007.38
2017-02-11T09:25:01.617Z,1007.39
2017-02-11T09:26:11.593Z,1007.32
2017-02-11T09:27:21.954Z,1007.37
2017-02-11T09:28:32.728Z,1007.3
2017-02-11T09:29:43.489Z,1007.21
2017-02-11T09:30:53.827Z,1007.36
2017-02-11T09:32:03.793Z,1007.27
2017-02-11T09:33:14.546Z,1007.31
2017-02-11T09:34:25.331Z,1007.29
2017-02-11T09:35:36.106Z,1007.31
2017-02-11T09:36:46.131Z,1007.23
2017-02-11T09:37:56.887Z,1007.35
2017-02-11T09:39:07.868Z,1007.29
2017-02-11T09:40:18.233Z,1007.28
2017-02-11T09:41:28.996Z,1007.28
2017-02-11T09:42:39.359Z,1007.19
2017-02-11T09:43:50.124Z,1007.31
2017-02-11T09:45:00.496Z,1007.24
2017-02-11T09:46:11.251Z,1007.29
2017-02-11T09:47:21.608Z,1007.24
2017-02-11T09:48:32.018Z,1007.3
2017-02-11T09:49:42.388Z,1007.35
2017-02-11T09:50:53.150Z,1007.39
2017-02-11T09:52:03.906Z,1007.39
2017-02-11T09:53:14.289Z,1007.34
2017-02-11T09:54:25.070Z,1007.37
2017-02-11T09:55:35.445Z,1007.37
2017-02-11T09:56:45.788Z,1007.35
2017-02-11T09:57:56.103Z,1007.29
2017-02-11T09:59:06.056Z,1007.32
2017-02-11T10:01:04.701Z,1007.33
2017-02-11T10:02:14.695Z,1007.27
2017-02-11T10:03:25.469Z,1007.29
2017-02-11T10:04:36.231Z,1007.17
2017-02-11T10:05:46.201Z,1007.27
2017-02-11T10:06:56.971Z,1007.34
2017-02-11T10:08:06.930Z,1007.28
2017-02-11T10:09:17.683Z,1007.25
2017-02-11T10:10:28.451Z,1007.27
2017-02-11T10:11:38.430Z,1007.35
2017-02-11T10:12:48.385Z,1007.32
2017-02-11T10:13:59.179Z,1007.26
2017-02-11T10:15:09.930Z,1007.27
2017-02-11T10:16:20.715Z,1007.25
2017-02-11T10:17:31.132Z,1007.27
2017-02-11T10:18:41.911Z,1007.31
2017-02-11T10:19:52.298Z,1007.27
2017-02-11T10:21:02.644Z,1007.27
2017-02-11T10:22:13.028Z,1007.3
2017-02-11T10:23:23.387Z,1007.29
2017-02-11T10:24:33.377Z,1007.27
2017-02-11T10:25:43.740Z,1007.23
2017-02-11T10:26:53.712Z,1007.3
2017-02-11T10:28:04.490Z,1007.27
2017-02-11T10:29:15.253Z,1007.27
2017-02-11T10:30:26.032Z,1007.28
2017-02-11T10:31:36.806Z,1007.35
2017-02-11T10:32:47.617Z,1007.31
2017-02-11T10:33:58.384Z,1007.21
2017-02-11T10:35:08.762Z,1007.24
2017-02-11T10:36:19.141Z,1007.24
2017-02-11T10:37:29.508Z,1007.26
2017-02-11T10:38:40.274Z,1007.24
2017-02-11T10:39:50.244Z,1007.22
2017-02-11T10:41:01.045Z,1007.22
2017-02-11T10:42:11.013Z,1007.21
2017-02-11T10:43:21.770Z,1007.2
2017-02-11T10:44:32.524Z,1007.16
2017-02-11T10:45:43.283Z,1007.16
2017-02-11T10:46:53.662Z,1007.2
2017-02-11T10:48:04.044Z,1007.16
2017-02-11T10:49:14.444Z,1007.16
2017-02-11T10:50:25.203Z,1007.18
2017-02-11T10:51:35.953Z,1007.19
2017-02-11T10:52:46.382Z,1007.14
2017-02-11T10:53:57.162Z,1007.15
2017-02-11T10:55:07.149Z,1007.2
2017-02-11T10:56:17.417Z,1007.18
2017-02-11T10:57:28.207Z,1007.18
2017-02-11T10:58:38.970Z,1007.16
2017-02-11T10:59:49.401Z,1007.2
2017-02-11T11:01:00.242Z,1007.24
2017-02-11T11:02:10.995Z,1007.17
2017-02-11T11:03:20.997Z,1007.29
2017-02-11T11:04:31.384Z,1007.15
2017-02-11T11:05:40.954Z,1007.17
2017-02-11T11:06:50.939Z,1007.16
2017-02-11T11:08:01.353Z,1007.13
2017-02-11T11:09:12.107Z,1007.18
2017-02-11T11:10:22.880Z,1007.2
2017-02-11T11:11:33.665Z,1007.15
2017-02-11T11:12:44.077Z,1007.27
2017-02-11T11:13:54.899Z,1007.24
2017-02-11T11:15:05.683Z,1007.21
2017-02-11T11:16:16.050Z,1007.23
2017-02-11T11:17:26.403Z,1007.12
2017-02-11T11:18:36.772Z,1007.16
2017-02-11T11:19:47.552Z,1007.13
2017-02-11T11:20:57.532Z,1007.14
2017-02-11T11:22:08.297Z,1007.04
2017-02-11T11:23:19.068Z,1007.06
2017-02-11T11:24:29.438Z,1007.1
2017-02-11T11:25:39.817Z,1007.07
2017-02-11T11:26:50.606Z,1007.07
2017-02-11T11:28:01.064Z,1007.12
2017-02-11T11:29:11.055Z,1007.09
2017-02-11T11:30:21.460Z,1007.09
2017-02-11T11:31:31.431Z,1007.11
2017-02-11T11:32:42.202Z,1007.09
2017-02-11T11:33:52.199Z,1007.08
2017-02-11T11:35:02.602Z,1007.08
2017-02-11T11:36:12.971Z,1007.05
2017-02-11T11:37:23.334Z,1007.06
2017-02-11T11:38:33.723Z,1007.03
2017-02-11T11:39:44.530Z,1007.08
2017-02-11T11:40:54.534Z,1007.07
2017-02-11T11:42:04.941Z,1007.04
2017-02-11T11:43:15.299Z,1007.08
2017-02-11T11:44:26.070Z,1007.12
2017-02-11T11:45:36.826Z,1007.1
2017-02-11T11:46:47.606Z,1007.04
2017-02-11T11:47:57.785Z,1007.06
2017-02-11T11:49:08.255Z,1007.09
2017-02-11T11:50:18.659Z,1007.06
2017-02-11T11:51:28.701Z,1007.13
2017-02-11T11:52:39.605Z,1007.08
2017-02-11T11:53:50.564Z,1007.11
2017-02-11T11:55:01.732Z,1007.11
2017-02-11T11:56:12.095Z,1007.08
2017-02-11T11:57:22.971Z,1007.06
2017-02-11T11:58:33.351Z,1007.04
2017-02-11T11:59:43.702Z,1007.08
2017-02-11T12:00:54.063Z,1007.05
2017-02-11T12:02:04.905Z,1007.01
2017-02-11T12:03:15.689Z,1007.1
2017-02-11T12:04:26.754Z,1007.08
2017-02-11T12:05:37.543Z,1007.1
2017-02-11T12:06:48.488Z,1007.07
2017-02-11T12:07:59.627Z,1007.06
2017-02-11T12:09:10.106Z,1007.07
2017-02-11T12:10:20.074Z,1007.05
2017-02-11T12:11:30.380Z,1007.07
2017-02-11T12:12:40.875Z,1007
2017-02-11T12:13:51.820Z,1007.04
2017-02-11T12:15:02.559Z,1007.02
2017-02-11T12:16:13.424Z,1007.04
2017-02-11T12:17:24.197Z,1006.96
2017-02-11T12:18:34.974Z,1007.01
2017-02-11T12:19:44.959Z,1007
2017-02-11T12:20:55.726Z,1007.01
2017-02-11T12:22:06.842Z,1006.94
2017-02-11T12:23:17.370Z,1006.92
2017-02-11T12:24:28.156Z,1006.86
2017-02-11T12:25:39.073Z,1006.9
2017-02-11T12:26:49.902Z,1006.88
2017-02-11T12:28:00.796Z,1006.89
2017-02-11T12:29:11.171Z,1006.87
2017-02-11T12:30:21.819Z,1006.84
2017-02-11T12:31:32.583Z,1006.82
2017-02-11T12:32:43.705Z,1006.83
2017-02-11T12:33:54.144Z,1006.83
2017-02-11T12:35:04.512Z,1006.81
2017-02-11T12:36:14.894Z,1006.85
2017-02-11T12:37:25.266Z,1006.78
2017-02-11T12:38:35.637Z,1006.75
2017-02-11T12:39:46.411Z,1006.83
2017-02-11T12:40:57.184Z,1006.74
2017-02-11T12:42:07.967Z,1006.76
2017-02-11T12:43:17.929Z,1006.71
2017-02-11T12:44:27.554Z,1006.72
2017-02-11T12:45:37.928Z,1006.73
2017-02-11T12:46:47.910Z,1006.71
2017-02-11T12:47:58.585Z,1006.76
2017-02-11T12:49:09.357Z,1006.73
2017-02-11T12:50:20.170Z,1006.65
2017-02-11T12:51:30.153Z,1006.7
2017-02-11T12:52:40.532Z,1006.75
2017-02-11T12:53:51.308Z,1006.73
2017-02-11T12:55:02.071Z,1006.74
2017-02-11T12:56:13.120Z,1006.75
2017-02-11T12:57:23.866Z,1006.68
2017-02-11T12:58:33.839Z,1006.71
2017-02-11T12:59:44.624Z,1006.75
2017-02-11T13:00:55.386Z,1006.71
2017-02-11T13:02:05.372Z,1006.71
2017-02-11T13:03:15.730Z,1006.68
2017-02-11T13:04:26.098Z,1006.75
2017-02-11T13:05:36.453Z,1006.73
2017-02-11T13:06:47.201Z,1006.71
2017-02-11T13:07:57.607Z,1006.68
2017-02-11T13:09:07.564Z,1006.7
2017-02-11T13:10:17.530Z,1006.73
2017-02-11T13:11:28.286Z,1006.69
2017-02-11T13:12:38.682Z,1006.72
2017-02-11T13:13:49.488Z,1006.7
2017-02-11T13:14:59.490Z,1006.79
2017-02-11T13:16:10.271Z,1006.75
2017-02-11T13:17:20.628Z,1006.7
2017-02-11T13:18:31.395Z,1006.71
2017-02-11T13:19:42.220Z,1006.75
2017-02-11T13:20:52.183Z,1006.74
2017-02-11T13:22:02.158Z,1006.75
2017-02-11T13:23:12.913Z,1006.69
2017-02-11T13:24:23.680Z,1006.7
2017-02-11T13:25:34.448Z,1006.77
2017-02-11T13:26:44.831Z,1006.81
2017-02-11T13:27:55.183Z,1006.79
2017-02-11T13:29:05.542Z,1006.75
2017-02-11T13:30:15.902Z,1006.77
2017-02-11T13:31:26.285Z,1006.79
2017-02-11T13:32:37.051Z,1006.8
2017-02-11T13:33:47.407Z,1006.86
2017-02-11T13:34:58.161Z,1006.83
2017-02-11T13:36:08.949Z,1006.75
2017-02-11T13:37:19.299Z,1006.78
2017-02-11T13:38:29.675Z,1006.8
2017-02-11T13:39:40.066Z,1006.82
2017-02-11T13:40:50.817Z,1006.79
2017-02-11T13:42:01.239Z,1006.89
2017-02-11T13:43:12.106Z,1006.86
2017-02-11T13:44:22.474Z,1006.83
2017-02-11T13:45:32.440Z,1006.75
2017-02-11T13:46:43.218Z,1006.74
2017-02-11T13:47:53.202Z,1006.84
2017-02-11T13:49:03.990Z,1006.78
2017-02-11T13:50:14.345Z,1006.73
2017-02-11T13:51:25.115Z,1006.78
2017-02-11T13:52:35.471Z,1006.73
2017-02-11T13:53:45.819Z,1006.73
2017-02-11T13:54:56.182Z,1006.73
2017-02-11T13:56:06.921Z,1006.76
2017-02-11T13:57:17.268Z,1006.73
2017-02-11T13:58:28.074Z,1006.78
2017-02-11T13:59:38.452Z,1006.72
2017-02-11T14:00:48.868Z,1006.74
2017-02-11T14:01:59.247Z,1006.74
2017-02-11T14:03:09.618Z,1006.71
2017-02-11T14:04:19.975Z,1006.74
2017-02-11T14:05:30.764Z,1006.65
2017-02-11T14:06:40.740Z,1006.66
2017-02-11T14:07:51.494Z,1006.67
2017-02-11T14:09:02.254Z,1006.67
2017-02-11T14:10:12.236Z,1006.63
2017-02-11T14:11:23.045Z,1006.7
2017-02-11T14:12:33.659Z,1006.66
2017-02-11T14:13:44.427Z,1006.68
2017-02-11T14:14:54.786Z,1006.66
2017-02-11T14:16:05.548Z,1006.68
2017-02-11T14:17:16.293Z,1006.71
2017-02-11T14:18:27.114Z,1006.72
2017-02-11T14:19:37.076Z,1006.64
2017-02-11T14:20:47.813Z,1006.75
2017-02-11T14:21:57.802Z,1006.74
2017-02-11T14:23:08.180Z,1006.64
2017-02-11T14:24:18.183Z,1006.69
2017-02-11T14:25:28.952Z,1006.63
2017-02-11T14:26:39.736Z,1006.66
2017-02-11T14:27:50.102Z,1006.61
2017-02-11T14:29:00.080Z,1006.65
2017-02-11T14:30:10.043Z,1006.65
2017-02-11T14:31:20.393Z,1006.68
2017-02-11T14:32:31.147Z,1006.66
2017-02-11T14:33:41.906Z,1006.66
2017-02-11T14:34:52.663Z,1006.66
2017-02-11T14:36:03.047Z,1006.75
2017-02-11T14:37:13.391Z,1006.66
2017-02-11T14:38:24.140Z,1006.65
2017-02-11T14:39:34.493Z,1006.71
2017-02-11T14:40:45.250Z,1006.67
2017-02-11T14:41:55.650Z,1006.66
2017-02-11T14:43:06.400Z,1006.7
2017-02-11T14:44:16.782Z,1006.7
2017-02-11T14:45:27.155Z,1006.72